createdAt,value
2022-08-25T00:02:55.016Z,100332.47
2022-08-25T00:06:01.615Z,100335.94
2022-08-25T00:09:06.348Z,100331.16
2022-08-25T00:12:09.266Z,100331.78
2022-08-25T00:15:13.152Z,100339.94
2022-08-25T00:18:20.041Z,100335.78
2022-08-25T00:21:23.283Z,100332.63
2022-08-25T00:24:27.465Z,100332.34
2022-08-25T00:27:30.542Z,100331.69
2022-08-25T00:30:34.557Z,100332.16
2022-08-25T00:33:37.806Z,100328.03
2022-08-25T00:36:40.332Z,100330.53
2022-08-25T00:39:45.573Z,100323.09
2022-08-25T00:42:51.236Z,100324.25
2022-08-25T00:45:55.221Z,100325.06
2022-08-25T00:49:01.123Z,100326.56
2022-08-25T00:52:05.125Z,100322.28
2022-08-25T00:55:11.106Z,100326.25
2022-08-25T00:58:19.552Z,100323.44
2022-08-25T01:01:22.069Z,100319.63
2022-08-25T01:04:33.676Z,100331.38
2022-08-25T01:07:38.857Z,100320.12
2022-08-25T01:10:48.489Z,100325.56
2022-08-25T01:14:01.557Z,100319.13
2022-08-25T01:17:06.633Z,100322.94
2022-08-25T01:20:12.502Z,100320.28
2022-08-25T01:23:14.969Z,100316.97
2022-08-25T01:26:30.353Z,100322.41
2022-08-25T01:29:35.190Z,100315.47
2022-08-25T01:32:43.111Z,100309.53
2022-08-25T01:35:49.318Z,100316.62
2022-08-25T01:38:54.402Z,100315.16
2022-08-25T01:42:07.981Z,100309.69
2022-08-25T01:45:12.004Z,100309.34
2022-08-25T01:48:17.303Z,100309.19
2022-08-25T01:51:21.721Z,100309.19
2022-08-25T01:54:24.508Z,100319.25
2022-08-25T01:57:37.118Z,100313.66
2022-08-25T02:00:49.432Z,100320.75
2022-08-25T02:04:00.873Z,100315.78
2022-08-25T02:07:10.889Z,100313.00
2022-08-25T02:10:14.775Z,100313.00
2022-08-25T02:13:18.099Z,100311.50
2022-08-25T02:16:22.661Z,100301.59
2022-08-25T02:19:35.997Z,100298.63
2022-08-25T02:22:40.245Z,100305.72
2022-08-25T02:25:51.365Z,100307.38
2022-08-25T02:28:59.604Z,100309.00
2022-08-25T02:32:04.616Z,100314.31
2022-08-25T02:35:09.658Z,100303.56
2022-08-25T02:38:11.903Z,100308.88
2022-08-25T02:41:20.625Z,100297.63
2022-08-25T02:44:33.255Z,100301.06
2022-08-25T02:47:39.387Z,100294.81
2022-08-25T02:50:48.023Z,100300.09
2022-08-25T02:53:53.794Z,100301.06
2022-08-25T02:56:56.375Z,100298.13
2022-08-25T03:00:00.924Z,100299.09
2022-08-25T03:03:04.527Z,100298.75
2022-08-25T03:06:08.655Z,100294.13
2022-08-25T03:09:12.913Z,100298.75
2022-08-25T03:12:19.789Z,100289.34
2022-08-25T03:15:22.387Z,100284.91
2022-08-25T03:18:25.075Z,100290.69
2022-08-25T03:21:30.889Z,100289.53
2022-08-25T03:24:34.034Z,100287.84
2022-08-25T03:27:36.885Z,100277.78
2022-08-25T03:30:39.813Z,100281.25
2022-08-25T03:33:44.929Z,100294.63
2022-08-25T03:36:50.857Z,100293.81
2022-08-25T03:39:55.131Z,100299.44
2022-08-25T03:42:58.118Z,100297.47
2022-08-25T03:46:01.891Z,100293.00
2022-08-25T03:49:06.867Z,100288.03
2022-08-25T03:52:09.878Z,100288.19
2022-08-25T03:55:16.727Z,100289.19
2022-08-25T03:58:21.522Z,100294.63
2022-08-25T04:01:29.179Z,100285.22
2022-08-25T04:04:35.820Z,100293.00
2022-08-25T04:07:39.130Z,100297.47
2022-08-25T04:10:55.728Z,100306.38
2022-08-25T04:14:13.031Z,100302.22
2022-08-25T04:17:20.026Z,100300.25
2022-08-25T04:20:24.040Z,100300.44
2022-08-25T04:23:30.635Z,100309.69
2022-08-25T04:26:37.507Z,100307.38
2022-08-25T04:29:41.173Z,100304.38
2022-08-25T04:32:46.214Z,100302.91
2022-08-25T04:35:53.741Z,100305.37
2022-08-25T04:38:57.549Z,100308.69
2022-08-25T04:42:01.333Z,100293.44
2022-08-25T04:45:05.786Z,100301.94
2022-08-25T04:51:48.633Z,100303.41
2022-08-25T04:54:53.980Z,100299.09
2022-08-25T04:58:16.488Z,100298.56
2022-08-25T05:04:57.431Z,100297.38
2022-08-25T05:08:01.926Z,100298.50
2022-08-25T05:11:13.833Z,100302.31
2022-08-25T06:12:56.754Z,100302.16
2022-08-25T06:16:08.865Z,100301.41
2022-08-25T06:19:17.040Z,100299.78
2022-08-25T06:22:57.489Z,100305.03
2022-08-25T06:26:00.145Z,100313.03
2022-08-25T06:29:12.274Z,100302.16
2022-08-25T06:32:27.039Z,100310.78
2022-08-25T06:35:29.477Z,100318.84
2022-08-25T06:38:37.841Z,100318.13
2022-08-25T06:41:41.206Z,100326.59
2022-08-25T06:44:45.442Z,100321.53
2022-08-25T06:47:47.830Z,100321.41
2022-08-25T06:51:04.856Z,100331.84
2022-08-25T06:54:33.776Z,100326.91
2022-08-25T06:57:39.818Z,100331.16
2022-08-25T07:00:50.512Z,100328.66
2022-08-25T07:04:00.172Z,100330.03
2022-08-25T07:07:04.194Z,100335.03
2022-08-25T07:10:10.613Z,100335.91
2022-08-25T07:13:16.896Z,100353.28
2022-08-25T07:16:23.094Z,100348.44
2022-08-25T07:23:33.311Z,100345.69
2022-08-25T07:26:38.742Z,100358.75
2022-08-25T07:29:42.708Z,100355.69
2022-08-25T07:32:46.342Z,100345.53
2022-08-25T07:35:54.341Z,100353.56
2022-08-25T07:38:57.730Z,100346.06
2022-08-25T07:42:00.528Z,100347.69
2022-08-25T07:45:05.967Z,100352.34
2022-08-25T07:48:13.709Z,100354.12
2022-08-25T07:51:15.994Z,100349.69
2022-08-25T07:54:19.101Z,100343.56
2022-08-25T07:57:23.259Z,100350.72
2022-08-25T08:00:28.097Z,100352.59
2022-08-25T08:03:45.182Z,100343.81
2022-08-25T08:06:53.662Z,100343.56
2022-08-25T08:10:25.705Z,100339.34
2022-08-25T08:13:20.928Z,100328.34
2022-08-25T08:16:27.281Z,100331.03
2022-08-25T08:19:29.729Z,100327.88
2022-08-25T08:22:32.253Z,100337.44
2022-08-25T08:25:34.636Z,100325.81
2022-08-25T08:28:37.423Z,100332.37
2022-08-25T08:31:40.450Z,100330.50
2022-08-25T08:34:51.120Z,100323.72
2022-08-25T08:37:55.084Z,100330.84
2022-08-25T08:41:33.883Z,100326.75
2022-08-25T08:44:45.955Z,100322.91
2022-08-25T08:47:59.489Z,100324.22
2022-08-25T08:51:14.942Z,100316.81
2022-08-25T08:54:23.035Z,100319.84
2022-08-25T08:57:27.293Z,100317.00
2022-08-25T09:00:32.330Z,100314.72
2022-08-25T09:03:35.005Z,100307.72
2022-08-25T09:06:41.657Z,100310.12
2022-08-25T09:09:46.513Z,100311.75
2022-08-25T09:13:00.971Z,100308.03
2022-08-25T10:55:15.385Z,100207.19
2022-08-25T10:58:19.496Z,100200.38
2022-08-25T11:01:48.312Z,100201.62
2022-08-25T11:05:02.240Z,100195.91
2022-08-25T11:08:06.114Z,100195.44
2022-08-25T11:11:09.720Z,100186.44
2022-08-25T11:14:20.562Z,100180.78
2022-08-25T11:17:47.299Z,100179.31
2022-08-25T11:21:13.056Z,100181.12
2022-08-25T11:24:33.971Z,100164.88
2022-08-25T11:27:49.218Z,100167.28
2022-08-25T11:30:53.727Z,100160.44
2022-08-25T11:33:58.470Z,100155.56
2022-08-25T11:37:11.241Z,100151.97
2022-08-25T11:40:31.715Z,100145.56
2022-08-25T11:43:55.525Z,100139.75
2022-08-25T11:47:01.886Z,100133.97
2022-08-25T11:50:24.135Z,100130.84
2022-08-25T11:53:42.356Z,100131.56
2022-08-25T11:56:57.641Z,100121.13
2022-08-25T12:00:08.375Z,100116.81
2022-08-25T12:03:31.807Z,100115.41
2022-08-25T12:06:34.626Z,100111.00
2022-08-25T12:09:37.286Z,100114.59
2022-08-25T12:12:46.514Z,100116.78
2022-08-25T12:15:49.665Z,100114.16
2022-08-25T12:18:54.339Z,100108.19
2022-08-25T12:22:04.051Z,100112.63
2022-08-25T12:25:11.682Z,100107.50
2022-08-25T12:28:28.606Z,100100.06
2022-08-25T12:31:47.355Z,100105.75
2022-08-25T12:34:50.325Z,100102.47
2022-08-25T12:38:05.650Z,100102.63
2022-08-25T12:41:08.719Z,100096.12
2022-08-25T12:44:31.494Z,100101.44
2022-08-25T12:47:35.087Z,100089.56
2022-08-25T12:50:43.289Z,100085.75
2022-08-25T12:53:52.186Z,100094.81
2022-08-25T12:57:00.076Z,100088.63
2022-08-25T13:00:22.955Z,100095.28
2022-08-25T13:03:47.289Z,100090.25
2022-08-25T13:06:53.445Z,100078.63
2022-08-25T13:10:06.184Z,100073.38
2022-08-25T13:13:32.550Z,100078.78
2022-08-25T13:16:35.394Z,100075.69
2022-08-25T13:19:38.503Z,100068.81
2022-08-25T13:22:44.348Z,100075.63
2022-08-25T13:25:51.450Z,100069.28
2022-08-25T13:29:03.548Z,100060.53
2022-08-25T13:32:14.478Z,100061.13
2022-08-25T13:35:24.658Z,100060.06
2022-08-25T13:38:28.081Z,100057.53
2022-08-25T13:41:34.003Z,100047.53
2022-08-25T13:44:39.507Z,100051.31
2022-08-25T13:47:45.234Z,100044.78
2022-08-25T13:50:51.693Z,100056.72
2022-08-25T13:54:00.326Z,100054.69
2022-08-25T13:57:30.246Z,100045.72
2022-08-25T14:00:35.732Z,100047.59
2022-08-25T14:03:41.080Z,100047.72
2022-08-25T14:06:48.419Z,100041.72
2022-08-25T14:09:52.207Z,100038.16
2022-08-25T14:13:09.705Z,100030.59
2022-08-25T14:16:15.653Z,100032.50
2022-08-25T14:19:21.702Z,100025.03
2022-08-25T14:22:25.041Z,100025.16
2022-08-25T14:25:28.431Z,100034.28
2022-08-25T14:28:33.926Z,100023.69
2022-08-25T14:31:40.500Z,100033.25
2022-08-25T14:34:43.420Z,100019.00
2022-08-25T14:37:45.765Z,100011.00
2022-08-25T14:40:48.303Z,100021.44
2022-08-25T14:43:51.096Z,100012.25
2022-08-25T14:46:54.602Z,100010.75
2022-08-25T14:49:57.261Z,100013.25
2022-08-25T14:53:00.575Z,100009.31
2022-08-25T14:56:09.194Z,100003.88
2022-08-25T14:59:13.580Z,100015.84
2022-08-25T15:02:19.968Z,100013.16
2022-08-25T15:05:28.445Z,100005.06
2022-08-25T15:08:49.138Z,100006.44
2022-08-25T15:11:52.987Z,100002.22
2022-08-25T15:14:57.372Z,99995.84
2022-08-25T15:18:01.321Z,100002.94
2022-08-25T15:21:04.052Z,100007.50
2022-08-25T15:24:09.135Z,100001.00
2022-08-25T15:27:13.205Z,99998.75
2022-08-25T15:30:16.305Z,100005.66
2022-08-25T15:33:20.013Z,99995.94
2022-08-25T15:36:25.173Z,99995.38
2022-08-25T15:39:28.353Z,99990.94
2022-08-25T15:42:30.970Z,99986.13
2022-08-25T15:45:33.713Z,99979.59
2022-08-25T15:48:37.331Z,99982.56
2022-08-25T15:51:39.499Z,99975.22
2022-08-25T15:54:42.054Z,99979.38
2022-08-25T15:57:49.668Z,99968.31
2022-08-25T16:00:56.562Z,99971.81
2022-08-25T16:03:59.877Z,99966.28
2022-08-25T16:07:02.449Z,99968.44
2022-08-25T16:10:07.011Z,99968.38
2022-08-25T16:13:10.586Z,99967.38
2022-08-25T16:16:14.546Z,99962.72
2022-08-25T16:19:18.095Z,99960.47
2022-08-25T16:22:21.328Z,99965.44
2022-08-25T16:25:24.084Z,99958.81
2022-08-25T16:28:26.672Z,99959.97
2022-08-25T16:31:29.880Z,99962.87
2022-08-25T16:34:34.596Z,99953.25
2022-08-25T16:37:37.591Z,99955.28
2022-08-25T16:40:42.248Z,99955.91
2022-08-25T16:43:46.960Z,99955.84
2022-08-25T16:46:49.850Z,99959.97
2022-08-25T16:49:53.441Z,99958.66
2022-08-25T16:53:33.570Z,99961.75
2022-08-25T16:56:38.226Z,99957.56
2022-08-25T16:59:43.683Z,99954.69
2022-08-25T17:02:48.931Z,99962.31
2022-08-25T17:05:53.446Z,99960.47
2022-08-25T17:08:56.961Z,99966.69
2022-08-25T17:12:00.629Z,99970.47
2022-08-25T17:15:06.161Z,99974.81
2022-08-25T17:18:08.910Z,99975.16
2022-08-25T17:21:16.142Z,99976.34
2022-08-25T17:24:29.689Z,99979.59
2022-08-25T17:27:34.863Z,99963.03
2022-08-25T17:30:39.408Z,99972.47
2022-08-25T17:33:42.900Z,99977.13
2022-08-25T17:36:45.849Z,99970.84
2022-08-25T17:39:50.124Z,99976.81
2022-08-25T17:42:59.516Z,99973.62
2022-08-25T17:46:02.308Z,99975.22
2022-08-25T17:49:06.609Z,99980.44
2022-08-25T17:52:08.798Z,99975.06
2022-08-25T17:55:14.077Z,99975.00
2022-08-25T17:58:19.568Z,99974.28
2022-08-25T18:01:27.784Z,99979.72
2022-08-25T18:04:30.086Z,99985.59
2022-08-25T18:07:32.838Z,99987.16
2022-08-25T18:10:36.645Z,99993.66
2022-08-25T18:13:40.476Z,99992.69
2022-08-25T18:16:44.650Z,99992.31
2022-08-25T18:19:48.748Z,99992.38
2022-08-25T18:22:53.114Z,99998.88
2022-08-25T18:26:00.927Z,99995.00
2022-08-25T18:29:06.333Z,99989.59
2022-08-25T18:32:13.747Z,99993.06
2022-08-25T18:35:16.732Z,99996.34
2022-08-25T18:38:42.883Z,99988.69
2022-08-25T18:41:45.663Z,99996.47
2022-08-25T18:44:50.237Z,99988.91
2022-08-25T18:47:58.603Z,99994.31
2022-08-25T18:51:02.631Z,99994.16
2022-08-25T18:54:05.812Z,99994.34
2022-08-25T18:57:08.966Z,99987.31
2022-08-25T19:00:13.213Z,99988.94
2022-08-25T19:03:16.380Z,99989.38
2022-08-25T19:06:19.841Z,99979.31
2022-08-25T19:09:24.539Z,99986.97
2022-08-25T19:12:27.086Z,99990.69
2022-08-25T19:15:30.571Z,99992.84
2022-08-25T19:18:33.427Z,99981.56
2022-08-25T19:21:38.565Z,99979.94
2022-08-25T19:24:41.238Z,99988.94
2022-08-25T19:27:44.310Z,99989.75
2022-08-25T19:30:50.014Z,99996.19
2022-08-25T19:33:56.157Z,99997.53
2022-08-25T19:37:00.997Z,99996.25
2022-08-25T19:40:05.236Z,99991.50
2022-08-25T19:43:08.708Z,99994.25
2022-08-25T19:46:10.779Z,99989.94
2022-08-25T19:49:15.394Z,99978.22
2022-08-25T19:52:26.790Z,99978.69
2022-08-25T19:55:30.172Z,99987.78
2022-08-25T19:58:32.994Z,99991.31
2022-08-25T20:01:39.027Z,99994.19
2022-08-25T20:04:43.836Z,99990.31
2022-08-25T20:07:53.785Z,99991.72
2022-08-25T20:11:01.896Z,99990.06
2022-08-25T20:14:12.536Z,99984.69
2022-08-25T20:17:24.685Z,99982.50
2022-08-25T20:20:32.387Z,99987.03
2022-08-25T20:23:56.739Z,99992.03
2022-08-25T20:27:00.680Z,99983.56
2022-08-25T20:30:05.088Z,99988.09
2022-08-25T20:33:09.340Z,99986.31
2022-08-25T20:36:14.643Z,99990.06
2022-08-25T20:39:18.463Z,99996.59
2022-08-25T20:42:21.354Z,99992.75
2022-08-25T20:45:24.424Z,99993.63
2022-08-25T20:48:29.677Z,99987.91
2022-08-25T20:51:32.461Z,99990.00
2022-08-25T20:54:38.346Z,99993.72
2022-08-25T20:57:41.037Z,100004.41
2022-08-25T21:00:43.998Z,99991.72
2022-08-25T21:03:46.908Z,99997.09
2022-08-25T21:06:50.887Z,99994.25
2022-08-25T21:09:53.486Z,100005.34
2022-08-25T21:12:56.578Z,99998.78
2022-08-25T21:16:01.210Z,99994.09
2022-08-25T21:19:05.831Z,99998.84
2022-08-25T21:22:11.375Z,99985.09
2022-08-25T21:25:14.274Z,99980.59
2022-08-25T21:28:16.443Z,99976.72
2022-08-25T21:31:19.883Z,99968.91
2022-08-25T21:34:22.473Z,99973.06
2022-08-25T21:37:27.076Z,99967.91
2022-08-25T21:40:29.222Z,99975.91
2022-08-25T21:43:31.494Z,99968.72
2022-08-25T21:46:34.613Z,99965.66
2022-08-25T21:49:39.636Z,99978.19
2022-08-25T21:52:42.960Z,99972.63
2022-08-25T21:55:46.023Z,99974.91
2022-08-25T21:58:49.124Z,99964.00
2022-08-25T22:01:56.076Z,99968.72
2022-08-25T22:04:59.096Z,99968.13
2022-08-25T22:08:01.273Z,99976.53
2022-08-25T22:11:05.512Z,99970.81
2022-08-25T22:14:12.925Z,99972.44
2022-08-25T22:17:21.213Z,99979.00
2022-08-25T22:20:26.660Z,99974.75
2022-08-25T22:23:32.332Z,99977.22
2022-08-25T22:26:42.233Z,99983.38
2022-08-25T22:29:50.329Z,99978.22
2022-08-25T22:32:53.260Z,99983.78
2022-08-25T22:35:59.797Z,99979.06
2022-08-25T22:39:03.089Z,99974.97
2022-08-25T22:42:06.220Z,99974.75
2022-08-25T22:45:09.314Z,99975.38
2022-08-25T22:48:18.346Z,99967.19
2022-08-25T22:51:27.153Z,99965.97
2022-08-25T22:54:32.214Z,99972.53
2022-08-25T22:57:36.013Z,99967.38
2022-08-25T23:00:41.769Z,99968.63
2022-08-25T23:03:47.694Z,99962.87
2022-08-25T23:06:50.541Z,99969.03
2022-08-25T23:09:53.783Z,99961.25
2022-08-25T23:12:56.471Z,99966.97
2022-08-25T23:16:00.131Z,99956.31
2022-08-25T23:19:02.839Z,99961.41
2022-08-25T23:22:13.103Z,99957.88
2022-08-25T23:25:19.417Z,99950.91
2022-08-25T23:28:23.158Z,99956.25
2022-08-25T23:31:26.616Z,99952.72
2022-08-25T23:34:33.733Z,99948.41
2022-08-25T23:37:36.425Z,99959.22
2022-08-25T23:40:40.360Z,99957.19
2022-08-25T23:43:43.355Z,99948.75
2022-08-25T23:46:47.886Z,99947.94
2022-08-25T23:49:51.056Z,99942.41
2022-08-25T23:52:53.632Z,99951.12
2022-08-25T23:55:56.823Z,99947.63
2022-08-25T23:58:59.864Z,99947.81
